sensor_id;sensor_type;location;lat;lon;timestamp;pressure;altitude;pressure_sealevel;temperature
37414;BMP280;23279;46.472;30.760;2023-03-09T12:54:59;77209.88;;;-146.33
37414;BMP280;23279;46.472;30.760;2023-03-09T12:57:26;77171.25;;;-146.33
37414;BMP280;23279;46.472;30.760;2023-03-09T12:59:52;77157.00;;;-146.33
37414;BMP280;23279;46.472;30.760;2023-03-09T13:02:30;77146.81;;;-146.33
37414;BMP280;23279;46.472;30.760;2023-03-09T13:07:58;77130.56;;;-146.33
37414;BMP280;23279;46.472;30.760;2023-03-09T13:10:34;77102.06;;;-146.33
37414;BMP280;23279;46.472;30.760;2023-03-09T13:13:38;77104.09;;;-146.33
37414;BMP280;23279;46.472;30.760;2023-03-09T13:29:57;77079.69;;;-146.33
37414;BMP280;23279;46.472;30.760;2023-03-09T13:32:30;77071.56;;;-146.33
37414;BMP280;23279;46.472;30.760;2023-03-09T13:35:03;77100.03;;;-146.33
37414;BMP280;23279;46.472;30.760;2023-03-09T13:37:38;77077.66;;;-146.33
37414;BMP280;23279;46.472;30.760;2023-03-09T13:40:21;77093.94;;;-146.33
37414;BMP280;23279;46.472;30.760;2023-03-09T13:42:48;77122.41;;;-146.33
37414;BMP280;23279;46.472;30.760;2023-03-09T13:45:19;77104.09;;;-146.33
37414;BMP280;23279;46.472;30.760;2023-03-09T13:47:45;77106.13;;;-146.33
37414;BMP280;23279;46.472;30.760;2023-03-09T13:50:17;77114.28;;;-146.33
37414;BMP280;23279;46.472;30.760;2023-03-09T13:56:02;77138.69;;;-146.33
37414;BMP280;23279;46.472;30.760;2023-03-09T13:58:36;77150.91;;;-146.33
37414;BMP280;23279;46.472;30.760;2023-03-09T14:01:03;77165.13;;;-146.33
37414;BMP280;23279;46.472;30.760;2023-03-09T14:03:34;77173.28;;;-146.33
37414;BMP280;23279;46.472;30.760;2023-03-09T14:06:09;77169.19;;;-146.33
37414;BMP280;23279;46.472;30.760;2023-03-09T14:08:48;77181.41;;;-146.33
37414;BMP280;23279;46.472;30.760;2023-03-09T14:11:21;77191.59;;;-146.33
37414;BMP280;23279;46.472;30.760;2023-03-09T14:14:12;77205.81;;;-146.33
37414;BMP280;23279;46.472;30.760;2023-03-09T14:16:43;77203.78;;;-146.33
37414;BMP280;23279;46.472;30.760;2023-03-09T14:19:19;77213.97;;;-146.33
37414;BMP280;23279;46.472;30.760;2023-03-09T14:21:50;77222.09;;;-146.33
37414;BMP280;23279;46.472;30.760;2023-03-09T14:26:42;77216.00;;;-146.33
37414;BMP280;23279;46.472;30.760;2023-03-09T14:34:36;77248.53;;;-146.33
37414;BMP280;23279;46.472;30.760;2023-03-09T14:37:01;77242.44;;;-146.33
37414;BMP280;23279;46.472;30.760;2023-03-09T14:39:31;77258.72;;;-146.33
37414;BMP280;23279;46.472;30.760;2023-03-09T14:44:44;77256.69;;;-146.33
37414;BMP280;23279;46.472;30.760;2023-03-09T14:47:20;77270.91;;;-146.33
37414;BMP280;23279;46.472;30.760;2023-03-09T14:49:50;77262.78;;;-146.33
37414;BMP280;23279;46.472;30.760;2023-03-09T14:52:16;77270.91;;;-146.33
37414;BMP280;23279;46.472;30.760;2023-03-09T14:54:42;77277.03;;;-146.33
37414;BMP280;23279;46.472;30.760;2023-03-09T14:57:11;77260.75;;;-146.33
37414;BMP280;23279;46.472;30.760;2023-03-09T14:59:37;77275.00;;;-146.33
37414;BMP280;23279;46.472;30.760;2023-03-09T15:02:04;77272.94;;;-146.33
37414;BMP280;23279;46.472;30.760;2023-03-09T15:04:29;77285.16;;;-146.33
37414;BMP280;23279;46.472;30.760;2023-03-09T15:06:56;77279.06;;;-146.33
37414;BMP280;23279;46.472;30.760;2023-03-09T15:09:22;77281.09;;;-146.33
37414;BMP280;23279;46.472;30.760;2023-03-09T15:11:48;77283.13;;;-146.33
37414;BMP280;23279;46.472;30.760;2023-03-09T15:14:41;77277.03;;;-146.33
37414;BMP280;23279;46.472;30.760;2023-03-09T15:17:07;77287.19;;;-146.33
37414;BMP280;23279;46.472;30.760;2023-03-09T15:19:34;77283.13;;;-146.33
37414;BMP280;23279;46.472;30.760;2023-03-09T15:21:59;77268.88;;;-146.33
37414;BMP280;23279;46.472;30.760;2023-03-09T15:24:27;77270.91;;;-146.33
37414;BMP280;23279;46.472;30.760;2023-03-09T15:26:53;77262.78;;;-146.33
37414;BMP280;23279;46.472;30.760;2023-03-09T15:29:19;77279.06;;;-146.33
37414;BMP280;23279;46.472;30.760;2023-03-09T15:31:45;77295.34;;;-146.33
37414;BMP280;23279;46.472;30.760;2023-03-09T15:34:11;77295.34;;;-146.33
37414;BMP280;23279;46.472;30.760;2023-03-09T15:36:36;77315.69;;;-146.33
37414;BMP280;23279;46.472;30.760;2023-03-09T15:39:02;77323.81;;;-146.33
37414;BMP280;23279;46.472;30.760;2023-03-09T15:41:28;77317.72;;;-146.33
37414;BMP280;23279;46.472;30.760;2023-03-09T15:43:53;77331.94;;;-146.33
37414;BMP280;23279;46.472;30.760;2023-03-09T15:46:19;77340.09;;;-146.33
37414;BMP280;23279;46.472;30.760;2023-03-09T15:48:44;77354.34;;;-146.33
37414;BMP280;23279;46.472;30.760;2023-03-09T15:51:10;77364.50;;;-146.33
37414;BMP280;23279;46.472;30.760;2023-03-09T15:53:35;77362.47;;;-146.33
37414;BMP280;23279;46.472;30.760;2023-03-09T15:56:07;77354.34;;;-146.33
37414;BMP280;23279;46.472;30.760;2023-03-09T15:58:34;77352.28;;;-146.33
37414;BMP280;23279;46.472;30.760;2023-03-09T16:01:12;77350.25;;;-146.33
37414;BMP280;23279;46.472;30.760;2023-03-09T16:03:38;77364.50;;;-146.33
37414;BMP280;23279;46.472;30.760;2023-03-09T16:06:05;77354.34;;;-146.33
37414;BMP280;23279;46.472;30.760;2023-03-09T16:08:30;77364.50;;;-146.33
37414;BMP280;23279;46.472;30.760;2023-03-09T16:10:56;77358.41;;;-146.33
37414;BMP280;23279;46.472;30.760;2023-03-09T16:13:21;77372.63;;;-146.33
37414;BMP280;23279;46.472;30.760;2023-03-09T16:15:48;77360.44;;;-146.33
37414;BMP280;23279;46.472;30.760;2023-03-09T16:18:14;77368.56;;;-146.33
37414;BMP280;23279;46.472;30.760;2023-03-09T16:20:39;77370.59;;;-146.33
37414;BMP280;23279;46.472;30.760;2023-03-09T16:23:05;77368.56;;;-146.33
37414;BMP280;23279;46.472;30.760;2023-03-09T16:25:30;77368.56;;;-146.33
37414;BMP280;23279;46.472;30.760;2023-03-09T16:27:56;77360.44;;;-146.33
37414;BMP280;23279;46.472;30.760;2023-03-09T16:30:22;77384.84;;;-146.33
37414;BMP280;23279;46.472;30.760;2023-03-09T16:32:51;77372.63;;;-146.33
37414;BMP280;23279;46.472;30.760;2023-03-09T16:35:18;77374.69;;;-146.33
37414;BMP280;23279;46.472;30.760;2023-03-09T16:37:44;77362.47;;;-146.33
37414;BMP280;23279;46.472;30.760;2023-03-09T16:40:10;77374.69;;;-146.33
37414;BMP280;23279;46.472;30.760;2023-03-09T16:42:36;77380.78;;;-146.33
37414;BMP280;23279;46.472;30.760;2023-03-09T16:45:02;77374.69;;;-146.33
37414;BMP280;23279;46.472;30.760;2023-03-09T16:47:28;77372.63;;;-146.33
37414;BMP280;23279;46.472;30.760;2023-03-09T16:50:01;77392.97;;;-146.33
37414;BMP280;23279;46.472;30.760;2023-03-09T16:52:28;77390.94;;;-146.33
37414;BMP280;23279;46.472;30.760;2023-03-09T16:54:59;77397.06;;;-146.33
37414;BMP280;23279;46.472;30.760;2023-03-09T16:57:25;77413.31;;;-146.33
37414;BMP280;23279;46.472;30.760;2023-03-09T16:59:52;77415.38;;;-146.33
37414;BMP280;23279;46.472;30.760;2023-03-09T17:02:17;77419.44;;;-146.33
37414;BMP280;23279;46.472;30.760;2023-03-09T17:04:43;77417.41;;;-146.33
37414;BMP280;23279;46.472;30.760;2023-03-09T17:07:08;77433.69;;;-146.33
37414;BMP280;23279;46.472;30.760;2023-03-09T17:09:34;77443.84;;;-146.33
37414;BMP280;23279;46.472;30.760;2023-03-09T17:11:59;77433.69;;;-146.33
37414;BMP280;23279;46.472;30.760;2023-03-09T17:14:24;77441.81;;;-146.33
37414;BMP280;23279;46.472;30.760;2023-03-09T17:16:50;77468.25;;;-146.33
37414;BMP280;23279;46.472;30.760;2023-03-09T17:19:16;77456.06;;;-146.33
37414;BMP280;23279;46.472;30.760;2023-03-09T17:21:41;77460.13;;;-146.33
37414;BMP280;23279;46.472;30.760;2023-03-09T17:24:07;77462.16;;;-146.33
37414;BMP280;23279;46.472;30.760;2023-03-09T17:26:34;77462.16;;;-146.33
37414;BMP280;23279;46.472;30.760;2023-03-09T17:28:59;77443.84;;;-146.33
37414;BMP280;23279;46.472;30.760;2023-03-09T17:31:25;77441.81;;;-146.33
37414;BMP280;23279;46.472;30.760;2023-03-09T17:33:51;77454.03;;;-146.33
37414;BMP280;23279;46.472;30.760;2023-03-09T17:36:16;77447.91;;;-146.33
37414;BMP280;23279;46.472;30.760;2023-03-09T17:38:43;77454.03;;;-146.33
37414;BMP280;23279;46.472;30.760;2023-03-09T17:41:09;77445.88;;;-146.33
37414;BMP280;23279;46.472;30.760;2023-03-09T17:43:35;77439.78;;;-146.33
37414;BMP280;23279;46.472;30.760;2023-03-09T17:46:03;77447.91;;;-146.33
37414;BMP280;23279;46.472;30.760;2023-03-09T17:48:30;77458.09;;;-146.33
37414;BMP280;23279;46.472;30.760;2023-03-09T17:51:02;77456.06;;;-146.33
37414;BMP280;23279;46.472;30.760;2023-03-09T17:53:28;77441.81;;;-146.33
37414;BMP280;23279;46.472;30.760;2023-03-09T17:55:58;77439.78;;;-146.33
37414;BMP280;23279;46.472;30.760;2023-03-09T17:58:25;77443.84;;;-146.33
37414;BMP280;23279;46.472;30.760;2023-03-09T18:00:51;77441.81;;;-146.33
37414;BMP280;23279;46.472;30.760;2023-03-09T18:03:17;77433.69;;;-146.33
37414;BMP280;23279;46.472;30.760;2023-03-09T18:05:42;77449.94;;;-146.33
37414;BMP280;23279;46.472;30.760;2023-03-09T18:08:08;77456.06;;;-146.33
37414;BMP280;23279;46.472;30.760;2023-03-09T18:10:33;77458.09;;;-146.33
37414;BMP280;23279;46.472;30.760;2023-03-09T18:13:00;77466.22;;;-146.33
37414;BMP280;23279;46.472;30.760;2023-03-09T18:15:26;77460.13;;;-146.33
37414;BMP280;23279;46.472;30.760;2023-03-09T18:17:55;77443.84;;;-146.33
37414;BMP280;23279;46.472;30.760;2023-03-09T18:20:20;77445.88;;;-146.33
37414;BMP280;23279;46.472;30.760;2023-03-09T18:22:46;77458.09;;;-146.33
37414;BMP280;23279;46.472;30.760;2023-03-09T18:25:12;77447.91;;;-146.33
37414;BMP280;23279;46.472;30.760;2023-03-09T18:27:37;77443.84;;;-146.33
37414;BMP280;23279;46.472;30.760;2023-03-09T18:30:04;77454.03;;;-146.33
37414;BMP280;23279;46.472;30.760;2023-03-09T18:32:29;77441.81;;;-146.33
37414;BMP280;23279;46.472;30.760;2023-03-09T18:34:55;77437.75;;;-146.33
37414;BMP280;23279;46.472;30.760;2023-03-09T18:37:20;77445.88;;;-146.33
37414;BMP280;23279;46.472;30.760;2023-03-09T18:39:46;77441.81;;;-146.33
37414;BMP280;23279;46.472;30.760;2023-03-09T18:42:11;77454.03;;;-146.33
37414;BMP280;23279;46.472;30.760;2023-03-09T18:44:37;77431.63;;;-146.33
37414;BMP280;23279;46.472;30.760;2023-03-09T18:47:02;77443.84;;;-146.33
37414;BMP280;23279;46.472;30.760;2023-03-09T18:49:28;77435.72;;;-146.33
37414;BMP280;23279;46.472;30.760;2023-03-09T18:51:54;77427.56;;;-146.33
37414;BMP280;23279;46.472;30.760;2023-03-09T18:54:19;77421.47;;;-146.33
37414;BMP280;23279;46.472;30.760;2023-03-09T18:56:45;77445.88;;;-146.33
37414;BMP280;23279;46.472;30.760;2023-03-09T18:59:13;77454.03;;;-146.33
37414;BMP280;23279;46.472;30.760;2023-03-09T19:01:39;77435.72;;;-146.33
37414;BMP280;23279;46.472;30.760;2023-03-09T19:04:04;77445.88;;;-146.33
37414;BMP280;23279;46.472;30.760;2023-03-09T19:06:31;77437.75;;;-146.33
37414;BMP280;23279;46.472;30.760;2023-03-09T19:08:56;77437.75;;;-146.33
37414;BMP280;23279;46.472;30.760;2023-03-09T19:11:22;77429.59;;;-146.33
37414;BMP280;23279;46.472;30.760;2023-03-09T19:13:48;77437.75;;;-146.33
37414;BMP280;23279;46.472;30.760;2023-03-09T19:16:17;77451.97;;;-146.33
37414;BMP280;23279;46.472;30.760;2023-03-09T19:18:44;77433.69;;;-146.33
37414;BMP280;23279;46.472;30.760;2023-03-09T19:21:17;77437.75;;;-146.33
37414;BMP280;23279;46.472;30.760;2023-03-09T19:23:48;77445.88;;;-146.33
37414;BMP280;23279;46.472;30.760;2023-03-09T19:26:14;77445.88;;;-146.33
37414;BMP280;23279;46.472;30.760;2023-03-09T19:28:39;77433.69;;;-146.33
37414;BMP280;23279;46.472;30.760;2023-03-09T19:31:14;77437.75;;;-146.33
37414;BMP280;23279;46.472;30.760;2023-03-09T19:33:40;77433.69;;;-146.33
37414;BMP280;23279;46.472;30.760;2023-03-09T19:36:09;77431.63;;;-146.33
37414;BMP280;23279;46.472;30.760;2023-03-09T19:38:34;77433.69;;;-146.33
37414;BMP280;23279;46.472;30.760;2023-03-09T19:41:03;77435.72;;;-146.33
37414;BMP280;23279;46.472;30.760;2023-03-09T19:43:29;77439.78;;;-146.33
37414;BMP280;23279;46.472;30.760;2023-03-09T19:46:08;77445.88;;;-146.33
37414;BMP280;23279;46.472;30.760;2023-03-09T19:48:35;77443.84;;;-146.33
37414;BMP280;23279;46.472;30.760;2023-03-09T19:51:05;77449.94;;;-146.33
37414;BMP280;23279;46.472;30.760;2023-03-09T19:53:38;77449.94;;;-146.33
37414;BMP280;23279;46.472;30.760;2023-03-09T19:56:08;77456.06;;;-146.33
37414;BMP280;23279;46.472;30.760;2023-03-09T19:58:34;77449.94;;;-146.33
37414;BMP280;23279;46.472;30.760;2023-03-09T20:01:00;77445.88;;;-146.33
37414;BMP280;23279;46.472;30.760;2023-03-09T20:03:26;77451.97;;;-146.33
37414;BMP280;23279;46.472;30.760;2023-03-09T20:05:59;77449.94;;;-146.33
37414;BMP280;23279;46.472;30.760;2023-03-09T20:08:25;77456.06;;;-146.33
37414;BMP280;23279;46.472;30.760;2023-03-09T20:10:51;77443.84;;;-146.33
37414;BMP280;23279;46.472;30.760;2023-03-09T20:13:16;77454.03;;;-146.33
37414;BMP280;23279;46.472;30.760;2023-03-09T20:15:42;77458.09;;;-146.33
37414;BMP280;23279;46.472;30.760;2023-03-09T20:18:07;77441.81;;;-146.33
37414;BMP280;23279;46.472;30.760;2023-03-09T20:20:33;77445.88;;;-146.33
37414;BMP280;23279;46.472;30.760;2023-03-09T20:23:01;77454.03;;;-146.33
37414;BMP280;23279;46.472;30.760;2023-03-09T20:25:27;77451.97;;;-146.33
37414;BMP280;23279;46.472;30.760;2023-03-09T20:27:53;77447.91;;;-146.33
37414;BMP280;23279;46.472;30.760;2023-03-09T20:30:18;77443.84;;;-146.33
37414;BMP280;23279;46.472;30.760;2023-03-09T20:32:44;77451.97;;;-146.33
37414;BMP280;23279;46.472;30.760;2023-03-09T20:35:09;77437.75;;;-146.33
37414;BMP280;23279;46.472;30.760;2023-03-09T20:37:35;77429.59;;;-146.33
37414;BMP280;23279;46.472;30.760;2023-03-09T20:40:00;77437.75;;;-146.33
37414;BMP280;23279;46.472;30.760;2023-03-09T20:42:25;77437.75;;;-146.33
37414;BMP280;23279;46.472;30.760;2023-03-09T20:44:51;77433.69;;;-146.33
37414;BMP280;23279;46.472;30.760;2023-03-09T20:47:16;77433.69;;;-146.33
37414;BMP280;23279;46.472;30.760;2023-03-09T20:49:41;77435.72;;;-146.33
37414;BMP280;23279;46.472;30.760;2023-03-09T20:52:07;77435.72;;;-146.33
37414;BMP280;23279;46.472;30.760;2023-03-09T20:54:32;77441.81;;;-146.33
37414;BMP280;23279;46.472;30.760;2023-03-09T20:56:58;77439.78;;;-146.33
37414;BMP280;23279;46.472;30.760;2023-03-09T20:59:24;77443.84;;;-146.33
37414;BMP280;23279;46.472;30.760;2023-03-09T21:01:49;77439.78;;;-146.33
37414;BMP280;23279;46.472;30.760;2023-03-09T21:04:16;77449.94;;;-146.33
37414;BMP280;23279;46.472;30.760;2023-03-09T21:06:41;77431.63;;;-146.33
37414;BMP280;23279;46.472;30.760;2023-03-09T21:09:07;77443.84;;;-146.33
37414;BMP280;23279;46.472;30.760;2023-03-09T21:11:32;77433.69;;;-146.33
37414;BMP280;23279;46.472;30.760;2023-03-09T21:13:59;77429.59;;;-146.33
37414;BMP280;23279;46.472;30.760;2023-03-09T21:16:26;77435.72;;;-146.33
37414;BMP280;23279;46.472;30.760;2023-03-09T21:18:52;77437.75;;;-146.33
37414;BMP280;23279;46.472;30.760;2023-03-09T21:21:18;77429.59;;;-146.33
37414;BMP280;23279;46.472;30.760;2023-03-09T21:23:44;77429.59;;;-146.33
37414;BMP280;23279;46.472;30.760;2023-03-09T21:26:16;77431.63;;;-146.33
37414;BMP280;23279;46.472;30.760;2023-03-09T21:28:42;77425.53;;;-146.33
37414;BMP280;23279;46.472;30.760;2023-03-09T21:31:08;77433.69;;;-146.33
37414;BMP280;23279;46.472;30.760;2023-03-09T21:33:41;77429.59;;;-146.33
37414;BMP280;23279;46.472;30.760;2023-03-09T21:36:06;77433.69;;;-146.33
37414;BMP280;23279;46.472;30.760;2023-03-09T21:38:32;77433.69;;;-146.33
37414;BMP280;23279;46.472;30.760;2023-03-09T21:40:58;77419.44;;;-146.33
37414;BMP280;23279;46.472;30.760;2023-03-09T21:43:25;77411.28;;;-146.33
37414;BMP280;23279;46.472;30.760;2023-03-09T21:45:52;77407.22;;;-146.33
37414;BMP280;23279;46.472;30.760;2023-03-09T21:48:17;77421.47;;;-146.33
37414;BMP280;23279;46.472;30.760;2023-03-09T21:50:43;77409.25;;;-146.33
37414;BMP280;23279;46.472;30.760;2023-03-09T21:53:08;77409.25;;;-146.33
37414;BMP280;23279;46.472;30.760;2023-03-09T21:55:37;77409.25;;;-146.33
37414;BMP280;23279;46.472;30.760;2023-03-09T21:58:02;77413.31;;;-146.33
37414;BMP280;23279;46.472;30.760;2023-03-09T22:00:28;77409.25;;;-146.33
37414;BMP280;23279;46.472;30.760;2023-03-09T22:02:58;77407.22;;;-146.33
37414;BMP280;23279;46.472;30.760;2023-03-09T22:05:25;77403.16;;;-146.33
37414;BMP280;23279;46.472;30.760;2023-03-09T22:07:57;77407.22;;;-146.33
37414;BMP280;23279;46.472;30.760;2023-03-09T22:10:23;77411.28;;;-146.33
37414;BMP280;23279;46.472;30.760;2023-03-09T22:12:49;77405.19;;;-146.33
37414;BMP280;23279;46.472;30.760;2023-03-09T22:15:15;77411.28;;;-146.33
37414;BMP280;23279;46.472;30.760;2023-03-09T22:17:40;77397.06;;;-146.33
37414;BMP280;23279;46.472;30.760;2023-03-09T22:20:06;77395.03;;;-146.33
37414;BMP280;23279;46.472;30.760;2023-03-09T22:22:39;77399.09;;;-146.33
37414;BMP280;23279;46.472;30.760;2023-03-09T22:25:06;77401.13;;;-146.33
37414;BMP280;23279;46.472;30.760;2023-03-09T22:27:32;77395.03;;;-146.33
37414;BMP280;23279;46.472;30.760;2023-03-09T22:29:58;77405.19;;;-146.33
37414;BMP280;23279;46.472;30.760;2023-03-09T22:32:25;77397.06;;;-146.33
37414;BMP280;23279;46.472;30.760;2023-03-09T22:34:51;77399.09;;;-146.33
37414;BMP280;23279;46.472;30.760;2023-03-09T22:37:17;77399.09;;;-146.33
37414;BMP280;23279;46.472;30.760;2023-03-09T22:39:49;77397.06;;;-146.33
37414;BMP280;23279;46.472;30.760;2023-03-09T22:42:14;77403.16;;;-146.33
37414;BMP280;23279;46.472;30.760;2023-03-09T22:44:40;77397.06;;;-146.33
37414;BMP280;23279;46.472;30.760;2023-03-09T22:47:05;77397.06;;;-146.33
37414;BMP280;23279;46.472;30.760;2023-03-09T22:49:31;77397.06;;;-146.33
37414;BMP280;23279;46.472;30.760;2023-03-09T22:51:56;77401.13;;;-146.33
37414;BMP280;23279;46.472;30.760;2023-03-09T22:54:22;77397.06;;;-146.33
37414;BMP280;23279;46.472;30.760;2023-03-09T22:56:47;77405.19;;;-146.33
37414;BMP280;23279;46.472;30.760;2023-03-09T22:59:14;77399.09;;;-146.33
37414;BMP280;23279;46.472;30.760;2023-03-09T23:01:40;77405.19;;;-146.33
37414;BMP280;23279;46.472;30.760;2023-03-09T23:04:05;77405.19;;;-146.33
37414;BMP280;23279;46.472;30.760;2023-03-09T23:06:32;77413.31;;;-146.33
37414;BMP280;23279;46.472;30.760;2023-03-09T23:08:58;77411.28;;;-146.33
37414;BMP280;23279;46.472;30.760;2023-03-09T23:11:32;77417.41;;;-146.33
37414;BMP280;23279;46.472;30.760;2023-03-09T23:13:58;77419.44;;;-146.33
37414;BMP280;23279;46.472;30.760;2023-03-09T23:16:24;77417.41;;;-146.33
37414;BMP280;23279;46.472;30.760;2023-03-09T23:18:50;77421.47;;;-146.33
37414;BMP280;23279;46.472;30.760;2023-03-09T23:21:17;77415.38;;;-146.33
37414;BMP280;23279;46.472;30.760;2023-03-09T23:23:43;77429.59;;;-146.33
37414;BMP280;23279;46.472;30.760;2023-03-09T23:26:09;77431.63;;;-146.33
37414;BMP280;23279;46.472;30.760;2023-03-09T23:28:35;77421.47;;;-146.33
37414;BMP280;23279;46.472;30.760;2023-03-09T23:31:04;77425.53;;;-146.33
37414;BMP280;23279;46.472;30.760;2023-03-09T23:33:30;77429.59;;;-146.33
37414;BMP280;23279;46.472;30.760;2023-03-09T23:35:56;77433.69;;;-146.33
37414;BMP280;23279;46.472;30.760;2023-03-09T23:38:21;77427.56;;;-146.33
37414;BMP280;23279;46.472;30.760;2023-03-09T23:40:46;77425.53;;;-146.33
37414;BMP280;23279;46.472;30.760;2023-03-09T23:43:12;77433.69;;;-146.33
37414;BMP280;23279;46.472;30.760;2023-03-09T23:45:37;77433.69;;;-146.33
37414;BMP280;23279;46.472;30.760;2023-03-09T23:48:05;77441.81;;;-146.33
37414;BMP280;23279;46.472;30.760;2023-03-09T23:50:31;77441.81;;;-146.33
37414;BMP280;23279;46.472;30.760;2023-03-09T23:52:56;77443.84;;;-146.33
37414;BMP280;23279;46.472;30.760;2023-03-09T23:55:22;77439.78;;;-146.33
37414;BMP280;23279;46.472;30.760;2023-03-09T23:57:47;77451.97;;;-146.33
